createdAt,value
2022-10-05T00:00:45.968Z,15.00
2022-10-05T00:02:52.466Z,14.90
2022-10-05T00:04:56.920Z,14.90
2022-10-05T00:07:16.540Z,14.90
2022-10-05T00:09:23.694Z,14.90
2022-10-05T00:11:25.773Z,14.80
2022-10-05T00:13:30.572Z,14.80
2022-10-05T00:15:32.426Z,14.80
2022-10-05T00:17:34.885Z,14.80
2022-10-05T00:19:39.714Z,14.70
2022-10-05T00:21:41.412Z,14.80
2022-10-05T00:23:43.328Z,14.70
2022-10-05T00:25:45.786Z,14.70
2022-10-05T00:28:01.362Z,14.60
2022-10-05T00:30:14.609Z,14.60
2022-10-05T00:32:17.829Z,14.60
2022-10-05T00:34:19.658Z,14.60
2022-10-05T00:36:21.732Z,14.50
2022-10-05T00:38:24.149Z,14.50
2022-10-05T00:41:05.559Z,14.50
2022-10-05T00:43:32.399Z,14.50
2022-10-05T00:45:43.631Z,14.50
2022-10-05T00:48:24.611Z,14.40
2022-10-05T00:50:41.414Z,14.40
2022-10-05T00:53:04.457Z,14.40
2022-10-05T00:55:17.249Z,14.30
2022-10-05T00:57:46.755Z,14.30
2022-10-05T01:00:14.161Z,14.30
2022-10-05T01:02:22.948Z,14.30
2022-10-05T01:04:49.606Z,14.20
2022-10-05T01:07:25.222Z,14.20
2022-10-05T01:09:44.484Z,14.20
2022-10-05T01:12:00.861Z,14.10
2022-10-05T01:14:20.158Z,14.10
2022-10-05T01:16:57.571Z,14.10
2022-10-05T01:19:40.212Z,14.00
2022-10-05T01:22:02.764Z,14.00
2022-10-05T01:24:13.431Z,14.00
2022-10-05T01:26:43.484Z,14.00
2022-10-05T01:29:01.636Z,14.00
2022-10-05T01:31:28.622Z,13.90
2022-10-05T01:33:34.323Z,13.90
2022-10-05T01:36:10.797Z,13.80
2022-10-05T01:38:23.442Z,13.90
2022-10-05T01:40:38.362Z,13.80
2022-10-05T01:43:13.738Z,13.80
2022-10-05T01:45:27.744Z,13.80
2022-10-05T01:47:50.076Z,13.80
2022-10-05T01:50:04.615Z,13.80
2022-10-05T01:52:13.035Z,13.80
2022-10-05T01:54:42.991Z,13.70
2022-10-05T01:57:10.766Z,13.80
2022-10-05T01:59:44.318Z,13.80
2022-10-05T02:01:59.171Z,13.70
2022-10-05T02:04:29.541Z,13.70
2022-10-05T02:06:42.381Z,13.70
2022-10-05T02:08:48.469Z,13.70
2022-10-05T02:11:11.634Z,13.70
2022-10-05T02:13:19.943Z,13.70
2022-10-05T02:15:32.361Z,13.60
2022-10-05T02:17:45.671Z,13.70
2022-10-05T02:20:01.471Z,13.70
2022-10-05T02:22:07.470Z,13.70
2022-10-05T02:24:25.218Z,13.60
2022-10-05T02:26:29.902Z,13.70
2022-10-05T02:28:31.691Z,13.70
2022-10-05T02:30:41.424Z,13.60
2022-10-05T02:32:57.289Z,13.60
2022-10-05T02:35:04.000Z,13.60
2022-10-05T02:37:17.338Z,13.60
2022-10-05T02:39:55.660Z,13.50
2022-10-05T02:42:13.270Z,13.50
2022-10-05T02:44:32.355Z,13.50
2022-10-05T02:46:41.715Z,13.50
2022-10-05T02:49:03.045Z,13.40
2022-10-05T02:51:21.639Z,13.40
2022-10-05T02:53:44.430Z,13.40
2022-10-05T02:55:57.764Z,13.30
2022-10-05T02:58:14.859Z,13.30
2022-10-05T03:00:20.786Z,13.30
2022-10-05T03:03:01.066Z,13.20
2022-10-05T03:05:30.701Z,13.20
2022-10-05T03:07:58.747Z,13.10
2022-10-05T03:10:35.444Z,13.10
2022-10-05T03:12:49.842Z,13.10
2022-10-05T03:15:18.649Z,13.10
2022-10-05T03:17:24.755Z,13.10
2022-10-05T03:20:20.683Z,13.00
2022-10-05T03:22:41.805Z,13.00
2022-10-05T03:25:17.482Z,13.10
2022-10-05T03:27:32.726Z,13.00
2022-10-05T03:29:57.461Z,13.00
2022-10-05T03:32:22.423Z,13.00
2022-10-05T03:34:33.165Z,13.00
2022-10-05T03:36:49.692Z,13.00
2022-10-05T03:39:07.094Z,12.90
2022-10-05T03:41:17.691Z,13.00
2022-10-05T03:43:56.925Z,13.00
2022-10-05T03:46:05.970Z,13.00
2022-10-05T03:48:14.154Z,13.00
2022-10-05T03:50:55.452Z,13.00
2022-10-05T03:53:03.950Z,13.00
2022-10-05T03:55:26.586Z,13.00
2022-10-05T03:57:33.344Z,13.00
2022-10-05T03:59:45.793Z,13.00
2022-10-05T04:02:01.283Z,13.00
2022-10-05T04:04:07.054Z,12.90
2022-10-05T04:06:16.727Z,12.90
2022-10-05T04:08:37.345Z,13.00
2022-10-05T04:10:46.563Z,12.90
2022-10-05T04:12:55.692Z,13.00
2022-10-05T04:15:06.051Z,13.00
2022-10-05T04:17:31.485Z,12.90
2022-10-05T04:19:45.268Z,13.00
2022-10-05T04:22:10.896Z,12.90
2022-10-05T04:24:36.560Z,12.90
2022-10-05T04:26:41.866Z,13.00
2022-10-05T04:28:49.948Z,13.00
2022-10-05T04:30:54.177Z,13.00
2022-10-05T04:32:58.818Z,13.00
2022-10-05T04:35:30.065Z,13.00
2022-10-05T04:37:47.930Z,13.00
2022-10-05T04:40:15.703Z,13.00
2022-10-05T04:42:40.144Z,13.00
2022-10-05T04:45:27.259Z,13.10
2022-10-05T04:47:51.481Z,13.10
2022-10-05T04:50:04.783Z,13.00
2022-10-05T04:52:23.677Z,13.10
2022-10-05T04:55:04.347Z,13.10
2022-10-05T04:57:14.625Z,13.10
2022-10-05T04:59:35.674Z,13.10
2022-10-05T05:02:04.221Z,13.10
2022-10-05T05:04:16.519Z,13.20
2022-10-05T05:07:00.216Z,13.20
2022-10-05T05:09:24.218Z,13.20
2022-10-05T05:12:11.064Z,13.20
2022-10-05T05:14:40.801Z,13.20
2022-10-05T05:16:45.898Z,13.30
2022-10-05T05:19:14.437Z,13.30
2022-10-05T05:21:44.376Z,13.30
2022-10-05T05:24:02.512Z,13.30
2022-10-05T05:26:20.582Z,13.30
2022-10-05T05:28:50.435Z,13.40
2022-10-05T05:31:01.882Z,13.40
2022-10-05T05:33:19.259Z,13.40
2022-10-05T05:35:40.324Z,13.40
2022-10-05T05:37:54.919Z,13.40
2022-10-05T05:40:07.576Z,13.50
2022-10-05T05:42:18.341Z,13.50
2022-10-05T05:44:27.077Z,13.50
2022-10-05T05:47:02.519Z,13.50
2022-10-05T05:49:10.586Z,13.60
2022-10-05T05:51:24.933Z,13.60
2022-10-05T05:53:40.608Z,13.60
2022-10-05T05:55:49.930Z,13.70
2022-10-05T05:58:09.292Z,13.60
2022-10-05T06:00:15.299Z,13.70
2022-10-05T06:02:49.078Z,13.70
2022-10-05T06:04:58.467Z,13.70
2022-10-05T06:07:03.284Z,13.70
2022-10-05T06:09:17.866Z,13.80
2022-10-05T06:11:40.206Z,13.80
2022-10-05T06:13:43.525Z,13.80
2022-10-05T06:16:14.898Z,13.80
2022-10-05T06:18:23.066Z,13.80
2022-10-05T06:20:41.514Z,13.80
2022-10-05T06:22:46.097Z,13.80
2022-10-05T06:24:57.699Z,13.80
2022-10-05T06:27:17.396Z,13.90
2022-10-05T06:29:23.023Z,13.90
2022-10-05T06:31:59.927Z,13.90
2022-10-05T06:34:15.761Z,13.90
2022-10-05T06:36:49.017Z,13.90
2022-10-05T06:39:16.782Z,14.00
2022-10-05T06:41:57.926Z,13.90
2022-10-05T06:44:39.886Z,14.00
2022-10-05T06:47:17.026Z,14.00
2022-10-05T06:50:05.203Z,14.00
2022-10-05T06:52:56.481Z,14.10
2022-10-05T06:55:30.355Z,14.00
2022-10-05T06:57:56.932Z,14.10
2022-10-05T07:00:04.902Z,14.10
2022-10-05T07:02:34.643Z,14.10
2022-10-05T07:04:57.718Z,14.10
2022-10-05T07:07:05.334Z,14.10
2022-10-05T07:09:12.115Z,14.10
2022-10-05T07:11:30.365Z,14.20
2022-10-05T07:13:47.710Z,14.20
2022-10-05T07:16:03.148Z,14.20
2022-10-05T07:18:23.655Z,14.20
2022-10-05T07:20:36.739Z,14.20
2022-10-05T07:22:41.351Z,14.20
2022-10-05T07:25:09.383Z,14.20
2022-10-05T07:27:28.008Z,14.20
2022-10-05T07:29:45.014Z,14.30
2022-10-05T07:32:25.544Z,14.30
2022-10-05T07:35:01.244Z,14.20
2022-10-05T07:37:31.690Z,14.30
2022-10-05T07:39:59.122Z,14.30
2022-10-05T07:42:51.502Z,14.30
2022-10-05T07:45:28.356Z,14.30
2022-10-05T07:47:51.716Z,14.30
2022-10-05T07:50:22.818Z,14.40
2022-10-05T07:52:46.026Z,14.30
2022-10-05T07:55:10.203Z,14.40
2022-10-05T07:57:14.620Z,14.40
2022-10-05T07:59:41.008Z,14.40
2022-10-05T08:01:48.475Z,14.40
2022-10-05T08:03:58.967Z,14.40
2022-10-05T08:06:03.098Z,14.40
2022-10-05T08:08:36.264Z,14.40
2022-10-05T08:10:59.852Z,14.40
2022-10-05T08:13:21.968Z,14.40
2022-10-05T08:15:28.489Z,14.40
2022-10-05T08:17:49.014Z,14.40
2022-10-05T08:19:58.525Z,14.40
2022-10-05T08:22:17.594Z,14.40
2022-10-05T08:24:34.391Z,14.40
2022-10-05T08:26:59.885Z,14.40
2022-10-05T08:29:22.607Z,14.40
2022-10-05T08:31:27.861Z,14.40
2022-10-05T08:33:36.201Z,14.30
2022-10-05T08:35:50.046Z,14.30
2022-10-05T08:37:52.776Z,14.30
2022-10-05T08:40:15.761Z,14.20
2022-10-05T08:42:20.059Z,14.20
2022-10-05T08:44:49.111Z,14.20
2022-10-05T08:47:28.628Z,14.20
2022-10-05T08:50:03.524Z,14.20
2022-10-05T08:52:24.402Z,14.30
2022-10-05T08:54:53.186Z,14.40
2022-10-05T08:57:05.705Z,14.30
2022-10-05T08:59:36.261Z,14.30
2022-10-05T09:02:09.070Z,14.30
2022-10-05T09:04:20.215Z,14.40
2022-10-05T09:06:45.111Z,14.40
2022-10-05T09:09:24.391Z,14.40
2022-10-05T09:12:05.338Z,14.40
2022-10-05T09:14:28.992Z,14.40
2022-10-05T09:17:08.203Z,14.50
2022-10-05T09:19:09.898Z,14.50
2022-10-05T09:21:32.735Z,14.50
2022-10-05T09:23:46.327Z,14.60
2022-10-05T09:25:59.435Z,14.60
2022-10-05T09:28:25.213Z,14.60
2022-10-05T09:30:29.886Z,14.60
2022-10-05T09:33:13.414Z,14.60
2022-10-05T09:35:24.342Z,14.70
2022-10-05T09:37:26.403Z,14.70
2022-10-05T09:40:01.158Z,14.70
2022-10-05T09:42:35.402Z,14.80
2022-10-05T09:45:12.679Z,14.80
2022-10-05T09:47:30.671Z,14.90
2022-10-05T09:49:51.048Z,14.90
2022-10-05T09:52:04.779Z,14.90
2022-10-05T09:54:37.541Z,14.90
2022-10-05T09:57:10.798Z,14.90
2022-10-05T09:59:43.160Z,14.90
2022-10-05T10:02:18.530Z,15.00
2022-10-05T10:04:35.335Z,15.00
2022-10-05T10:06:56.175Z,15.00
2022-10-05T10:09:13.461Z,15.00
2022-10-05T10:11:31.658Z,15.00
2022-10-05T10:13:57.478Z,15.00
2022-10-05T10:16:11.225Z,15.10
2022-10-05T10:18:16.580Z,15.10
2022-10-05T10:20:36.094Z,15.10
2022-10-05T10:22:50.089Z,15.20
2022-10-05T10:25:13.717Z,15.20
2022-10-05T10:27:32.239Z,15.30
2022-10-05T10:29:43.249Z,15.30
2022-10-05T10:32:02.952Z,15.40
2022-10-05T10:34:25.188Z,15.50
2022-10-05T10:36:45.586Z,15.40
2022-10-05T10:39:14.461Z,15.50
2022-10-05T10:41:42.469Z,15.60
2022-10-05T10:44:05.095Z,15.70
2022-10-05T10:46:23.036Z,15.70
2022-10-05T10:48:31.256Z,15.70
2022-10-05T10:51:01.410Z,15.70
2022-10-05T10:53:21.320Z,15.80
2022-10-05T10:55:41.323Z,15.80
2022-10-05T10:58:11.192Z,15.70
2022-10-05T11:00:39.876Z,15.80
2022-10-05T11:03:18.802Z,15.80
2022-10-05T11:05:51.189Z,15.90
2022-10-05T11:08:13.704Z,15.80
2022-10-05T11:10:19.507Z,15.90
2022-10-05T11:13:08.174Z,15.90
2022-10-05T11:15:14.271Z,16.00
2022-10-05T11:17:40.602Z,16.00
2022-10-05T11:20:05.432Z,16.10
2022-10-05T11:22:26.484Z,16.10
2022-10-05T11:24:55.664Z,16.20
2022-10-05T11:27:33.542Z,16.30
2022-10-05T11:30:06.471Z,16.40
2022-10-05T11:32:47.074Z,16.40
2022-10-05T11:35:26.378Z,16.50
2022-10-05T11:37:46.972Z,16.60
2022-10-05T11:40:26.675Z,16.60
2022-10-05T11:42:51.290Z,16.70
2022-10-05T11:45:23.715Z,16.80
2022-10-05T11:47:34.250Z,16.90
2022-10-05T11:49:47.518Z,16.90
2022-10-05T11:51:59.039Z,17.00
2022-10-05T11:54:19.898Z,17.10
2022-10-05T11:56:26.410Z,17.20
2022-10-05T11:58:43.390Z,17.20
2022-10-05T12:01:06.831Z,17.30
2022-10-05T12:03:27.372Z,17.30
2022-10-05T12:06:02.963Z,17.50
2022-10-05T12:08:10.471Z,17.50
2022-10-05T12:10:28.877Z,17.60
2022-10-05T12:12:55.562Z,17.60
2022-10-05T12:15:00.310Z,17.70
2022-10-05T12:17:16.595Z,17.80
2022-10-05T12:19:34.840Z,17.90
2022-10-05T12:22:04.044Z,18.00
2022-10-05T12:24:29.126Z,18.10
2022-10-05T12:26:44.773Z,18.20
2022-10-05T12:29:22.638Z,18.30
2022-10-05T12:32:05.738Z,18.40
2022-10-05T12:34:24.987Z,18.50
2022-10-05T12:37:02.861Z,18.70
2022-10-05T12:39:20.661Z,18.80
2022-10-05T12:41:49.585Z,18.90
2022-10-05T12:44:15.228Z,19.00
2022-10-05T12:46:38.085Z,19.20
2022-10-05T12:49:19.503Z,19.30
2022-10-05T12:52:00.799Z,19.40
2022-10-05T12:54:31.793Z,19.50
2022-10-05T12:56:41.741Z,19.60
2022-10-05T12:59:31.266Z,19.70
2022-10-05T13:01:33.835Z,19.80
2022-10-05T13:03:44.341Z,19.90
2022-10-05T13:06:02.481Z,19.90
2022-10-05T13:08:36.527Z,20.00
2022-10-05T13:10:52.902Z,20.10
2022-10-05T13:13:26.403Z,20.20
2022-10-05T13:15:47.043Z,20.30
2022-10-05T13:18:02.599Z,20.40
2022-10-05T13:20:24.908Z,20.50
2022-10-05T13:22:37.459Z,20.70
2022-10-05T13:24:45.738Z,20.80
2022-10-05T13:27:02.412Z,20.80
2022-10-05T13:29:34.516Z,20.90
2022-10-05T13:31:46.075Z,21.00
2022-10-05T13:34:03.215Z,21.00
2022-10-05T13:36:18.620Z,21.00
2022-10-05T13:38:42.985Z,21.10
2022-10-05T13:41:03.362Z,21.20
2022-10-05T13:43:14.448Z,21.20
2022-10-05T13:45:24.160Z,21.30
2022-10-05T13:47:54.232Z,21.40
2022-10-05T13:50:14.709Z,21.40
2022-10-05T13:52:28.229Z,21.50
2022-10-05T13:54:43.253Z,21.50
2022-10-05T13:56:51.159Z,21.60
2022-10-05T13:59:05.566Z,21.60
2022-10-05T14:01:35.224Z,21.70
2022-10-05T14:03:38.478Z,21.80
2022-10-05T14:06:01.652Z,21.90
2022-10-05T14:08:04.034Z,22.00
2022-10-05T14:10:28.755Z,22.10
2022-10-05T14:12:40.283Z,22.20
2022-10-05T14:15:04.831Z,22.30
2022-10-05T14:17:15.662Z,22.30
2022-10-05T14:19:23.547Z,22.40
2022-10-05T14:21:31.696Z,22.40
2022-10-05T14:23:33.922Z,22.50
2022-10-05T14:25:50.178Z,22.50
2022-10-05T14:27:59.688Z,22.60
2022-10-05T14:30:11.868Z,22.60
2022-10-05T14:32:15.879Z,22.60
2022-10-05T14:34:42.661Z,22.70
2022-10-05T14:36:44.639Z,22.70
2022-10-05T14:38:58.047Z,22.70
2022-10-05T14:41:17.558Z,22.90
2022-10-05T14:43:20.697Z,22.90
2022-10-05T14:45:29.856Z,22.90
2022-10-05T14:47:34.211Z,23.00
2022-10-05T14:50:16.773Z,23.00
2022-10-05T14:52:32.892Z,23.10
2022-10-05T14:54:44.210Z,23.00
2022-10-05T14:56:55.085Z,23.10
2022-10-05T14:59:15.147Z,23.00
2022-10-05T15:01:28.270Z,23.10
2022-10-05T15:03:57.469Z,23.00
2022-10-05T15:06:01.962Z,23.00
2022-10-05T15:08:18.401Z,23.10
2022-10-05T15:10:39.945Z,23.10
2022-10-05T15:12:46.738Z,23.10
2022-10-05T15:15:00.235Z,23.20
2022-10-05T15:17:04.847Z,23.20
2022-10-05T15:19:34.875Z,23.20
2022-10-05T15:21:42.435Z,23.30
2022-10-05T15:23:52.760Z,23.30
2022-10-05T15:26:01.938Z,23.30
2022-10-05T15:28:42.538Z,23.30
2022-10-05T15:31:02.830Z,23.40
2022-10-05T15:33:31.924Z,23.40
2022-10-05T15:36:14.200Z,23.40
2022-10-05T15:38:31.356Z,23.40
2022-10-05T15:40:39.834Z,23.40
2022-10-05T15:42:43.032Z,23.30
2022-10-05T15:44:55.557Z,23.20
2022-10-05T15:47:05.646Z,23.20
2022-10-05T15:49:23.864Z,23.20
2022-10-05T15:51:38.871Z,23.20
2022-10-05T15:54:20.349Z,23.10
2022-10-05T15:56:31.003Z,23.20
2022-10-05T15:58:50.012Z,23.10
2022-10-05T16:01:07.910Z,23.10
2022-10-05T16:03:46.371Z,23.10
2022-10-05T16:06:12.310Z,23.10
2022-10-05T16:08:51.285Z,23.00
2022-10-05T16:10:53.339Z,23.00
2022-10-05T16:13:00.999Z,22.90
2022-10-05T16:15:33.872Z,22.90
2022-10-05T16:17:52.471Z,22.90
2022-10-05T16:20:25.150Z,22.70
2022-10-05T16:22:49.426Z,22.80
2022-10-05T16:25:06.271Z,22.70
2022-10-05T16:27:16.841Z,22.60
2022-10-05T16:29:33.575Z,22.60
2022-10-05T16:31:37.310Z,22.60
2022-10-05T16:34:00.833Z,22.50
2022-10-05T16:36:16.297Z,22.40
2022-10-05T16:38:33.597Z,22.40
2022-10-05T16:41:01.953Z,22.30
2022-10-05T16:43:36.021Z,22.30
2022-10-05T16:46:02.662Z,22.20
2022-10-05T16:48:26.617Z,22.20
2022-10-05T16:50:44.049Z,22.10
2022-10-05T16:52:54.573Z,22.10
2022-10-05T16:55:01.363Z,22.00
2022-10-05T16:57:03.124Z,22.00
2022-10-05T16:59:47.061Z,21.90
2022-10-05T17:02:22.772Z,22.00
2022-10-05T17:04:24.878Z,21.90
2022-10-05T17:06:58.228Z,21.90
2022-10-05T17:09:05.802Z,21.90
2022-10-05T17:11:32.755Z,21.90
2022-10-05T17:14:11.674Z,21.90
2022-10-05T17:16:26.071Z,21.90
2022-10-05T17:18:49.447Z,21.80
2022-10-05T17:21:12.165Z,21.70
2022-10-05T17:23:40.811Z,21.70
2022-10-05T17:25:59.883Z,21.70
2022-10-05T17:28:44.826Z,21.60
2022-10-05T17:31:11.321Z,21.60
2022-10-05T17:33:14.115Z,21.60
2022-10-05T17:35:22.198Z,21.50
2022-10-05T17:37:42.674Z,21.50
2022-10-05T17:40:28.317Z,21.50
2022-10-05T17:42:34.181Z,21.40
2022-10-05T17:44:36.160Z,21.40
2022-10-05T17:46:47.937Z,21.30
2022-10-05T17:48:49.773Z,21.30
2022-10-05T17:51:10.109Z,21.30
2022-10-05T17:54:02.946Z,21.30
2022-10-05T17:56:05.685Z,21.30
2022-10-05T17:58:29.015Z,21.30
2022-10-05T18:00:33.666Z,21.30
2022-10-05T18:02:37.419Z,21.30
2022-10-05T18:04:42.189Z,21.20
2022-10-05T18:07:13.879Z,21.20
2022-10-05T18:09:17.366Z,21.30
2022-10-05T18:11:31.318Z,21.20
2022-10-05T18:13:43.792Z,21.20
2022-10-05T18:15:49.106Z,21.20
2022-10-05T18:17:54.695Z,21.10
2022-10-05T18:20:13.168Z,21.10
2022-10-05T18:22:17.709Z,21.10
2022-10-05T18:24:34.668Z,21.00
2022-10-05T18:26:48.044Z,21.10
2022-10-05T18:29:14.026Z,21.00
2022-10-05T18:31:39.654Z,21.00
2022-10-05T18:33:57.590Z,21.00
2022-10-05T18:36:42.831Z,21.00
2022-10-05T18:39:02.413Z,20.90
2022-10-05T18:41:24.736Z,20.90
2022-10-05T18:43:53.869Z,20.90
2022-10-05T18:46:28.043Z,20.80
2022-10-05T18:48:45.179Z,20.80
2022-10-05T18:51:00.281Z,20.80
2022-10-05T18:53:40.475Z,20.70
2022-10-05T18:55:58.885Z,20.70
2022-10-05T18:58:16.520Z,20.70
2022-10-05T19:00:21.062Z,20.70
2022-10-05T19:02:26.053Z,20.60
2022-10-05T19:04:36.477Z,20.60
2022-10-05T19:06:57.068Z,20.60
2022-10-05T19:09:25.990Z,20.60
2022-10-05T19:11:51.251Z,20.60
2022-10-05T19:14:22.797Z,20.50
2022-10-05T19:16:45.489Z,20.50
2022-10-05T19:19:15.543Z,20.40
2022-10-05T19:21:39.418Z,20.50
2022-10-05T19:24:10.170Z,20.40
2022-10-05T19:26:29.175Z,20.40
2022-10-05T19:29:12.242Z,20.40
2022-10-05T19:31:40.837Z,20.40
2022-10-05T19:33:52.554Z,20.30
2022-10-05T19:35:59.991Z,20.20
2022-10-05T19:38:16.456Z,20.20
2022-10-05T19:40:45.342Z,20.20
2022-10-05T19:43:08.532Z,20.20
2022-10-05T19:45:27.373Z,20.10
2022-10-05T19:47:38.874Z,20.20
2022-10-05T19:49:56.856Z,20.00
2022-10-05T19:51:59.054Z,20.00
2022-10-05T19:54:10.349Z,19.90
2022-10-05T19:56:25.278Z,19.90
2022-10-05T19:58:29.708Z,19.90
2022-10-05T20:00:37.682Z,19.70
2022-10-05T20:02:42.187Z,19.70
2022-10-05T20:04:49.446Z,19.70
2022-10-05T20:06:51.307Z,19.70
2022-10-05T20:09:00.177Z,19.70
2022-10-05T20:11:05.247Z,19.60
2022-10-05T20:13:19.623Z,19.60
2022-10-05T20:15:51.943Z,19.70
2022-10-05T20:18:12.594Z,19.60
2022-10-05T20:20:47.060Z,19.60
2022-10-05T20:22:52.371Z,19.60
2022-10-05T20:24:56.934Z,19.60
2022-10-05T20:27:02.137Z,19.50
2022-10-05T20:29:03.888Z,19.50
2022-10-05T20:31:08.826Z,19.50
2022-10-05T20:33:14.682Z,19.50
2022-10-05T20:35:18.680Z,19.40
2022-10-05T20:37:20.536Z,19.40
2022-10-05T20:39:22.381Z,19.40
2022-10-05T20:41:24.243Z,19.40
2022-10-05T20:43:26.073Z,19.30
2022-10-05T20:45:28.355Z,19.30
2022-10-05T20:47:30.106Z,19.30
2022-10-05T20:49:32.233Z,19.30
2022-10-05T20:51:36.048Z,19.20
2022-10-05T20:53:38.537Z,19.20
2022-10-05T20:55:40.454Z,19.20
2022-10-05T20:57:42.537Z,19.20
2022-10-05T20:59:45.723Z,19.10
2022-10-05T21:01:50.273Z,19.10
2022-10-05T21:03:55.607Z,19.10
2022-10-05T21:05:57.577Z,19.10
2022-10-05T21:07:59.878Z,19.00
2022-10-05T21:10:03.633Z,19.00
2022-10-05T21:12:05.464Z,19.00
2022-10-05T21:14:07.360Z,18.90
2022-10-05T21:16:13.087Z,18.90
2022-10-05T21:18:17.055Z,18.90
2022-10-05T21:20:18.766Z,18.90
2022-10-05T21:22:20.422Z,18.90
2022-10-05T21:24:22.356Z,18.80
2022-10-05T21:26:24.147Z,18.80
2022-10-05T21:28:26.383Z,18.80
2022-10-05T21:30:28.540Z,18.80
2022-10-05T21:32:30.546Z,18.70
2022-10-05T21:34:32.639Z,18.70
2022-10-05T21:36:35.231Z,18.70
2022-10-05T21:38:37.619Z,18.60
2022-10-05T21:40:39.604Z,18.60
2022-10-05T21:42:41.396Z,18.60
2022-10-05T21:44:43.116Z,18.60
2022-10-05T21:46:44.988Z,18.50
2022-10-05T21:48:48.075Z,18.50
2022-10-05T21:50:49.869Z,18.40
2022-10-05T21:52:52.284Z,18.40
2022-10-05T21:54:54.014Z,18.40
2022-10-05T21:56:58.910Z,18.30
2022-10-05T21:59:06.203Z,18.30
2022-10-05T22:01:08.102Z,18.30
2022-10-05T22:03:09.946Z,18.30
2022-10-05T22:05:11.665Z,18.30
2022-10-05T22:07:19.672Z,18.30
2022-10-05T22:09:22.667Z,18.30
2022-10-05T22:11:24.506Z,18.30
2022-10-05T22:13:27.664Z,18.20
2022-10-05T22:15:31.128Z,18.20
2022-10-05T22:17:33.744Z,18.20
2022-10-05T22:19:35.491Z,18.20
2022-10-05T22:21:41.565Z,18.30
2022-10-05T22:23:45.712Z,18.20
2022-10-05T22:25:48.745Z,18.20
2022-10-05T22:27:50.729Z,18.20
2022-10-05T22:29:56.186Z,18.20
2022-10-05T22:31:58.092Z,18.20
2022-10-05T22:33:59.826Z,18.10
2022-10-05T22:36:01.599Z,18.10
2022-10-05T22:38:04.203Z,18.10
2022-10-05T22:40:08.543Z,18.10
2022-10-05T22:42:10.249Z,18.10
2022-10-05T22:44:18.600Z,18.10
2022-10-05T22:46:20.338Z,18.10
2022-10-05T22:48:22.363Z,18.10
2022-10-05T22:50:24.003Z,18.00
2022-10-05T22:52:25.925Z,18.00
2022-10-05T22:54:30.502Z,18.00
2022-10-05T22:56:34.095Z,18.00
2022-10-05T22:58:36.591Z,18.00
2022-10-05T23:00:57.470Z,18.00
2022-10-05T23:02:59.982Z,18.00
2022-10-05T23:05:01.645Z,18.00
2022-10-05T23:07:03.353Z,18.00
2022-10-05T23:09:05.034Z,17.90
2022-10-05T23:11:15.338Z,17.90
2022-10-05T23:13:17.048Z,17.90
2022-10-05T23:15:18.709Z,17.90
2022-10-05T23:17:21.233Z,17.90
2022-10-05T23:19:23.930Z,17.90
2022-10-05T23:21:31.542Z,17.90
2022-10-05T23:23:37.365Z,17.90
2022-10-05T23:25:41.192Z,17.90
2022-10-05T23:27:43.086Z,17.90
2022-10-05T23:29:44.821Z,17.90
2022-10-05T23:31:46.535Z,17.90
2022-10-05T23:33:48.384Z,17.90
2022-10-05T23:36:00.781Z,17.90
2022-10-05T23:38:07.121Z,17.90
2022-10-05T23:40:14.051Z,17.90
2022-10-05T23:42:15.716Z,17.90
2022-10-05T23:44:17.635Z,17.90
2022-10-05T23:46:19.275Z,17.90
2022-10-05T23:48:21.346Z,17.90
2022-10-05T23:50:24.966Z,17.90
2022-10-05T23:52:26.689Z,17.90
2022-10-05T23:54:28.347Z,17.90
2022-10-05T23:56:30.234Z,18.00
2022-10-05T23:58:32.397Z,18.00
